Startpagina
METAR-TAF:

METAR-TAF

Vliegvelden :

Beira, Mozambique

breedte: 19-48S, lengte: 034-54E, hoogte: 8 m

Actueel weer

Dit bericht is 25 minuten geleden gemaakt, om 09:00 UTC
Wind 11 kt uit het oostzuidoosten, variërend tussen het oosten en het zuidoosten
Temperatuur 31°C
Vochtigheid 63%
Druk 1007 hPa
Zicht 10 km of meer
Weinig wolken op 2000 ft

METAR: FQBR 170900Z 12011KT 080V140 9999 FEW020 31/23 Q1007

Tijdstip: 11:25 (09:25 UTC)

Verwachting

Dit bericht is 5 uur en het 25 minuten geleden gemaakt, om 04:00 UTC
Verwachting geldig van 17 om 06 UTC tot 18 om 12 UTC
Wind 12 kt uit het oosten
Zicht 10 km of meer
Verspreide wolken op 2000 ft
Kans 30% :
Tijdelijke
van 17 om 18 UTC tot 17 om 24 UTC
Zicht: 5000 m
Weinig wolken op 3000 ft, Cumulonimbus.
onweer, lichte regen
Wijzigt naar
van 17 om 18 UTC tot 17 om 20 UTC
Wind 16 kt uit het noordnoordoosten

TAF: FQBR 170400Z 1706/1812 09012KT 9999 SCT020 TX32/1713Z TN25/1803Z PROB30 TEMPO 1718/1724 5000 -TSRA FEW030CB BECMG 1718/1720 02016KT

Waarnemingen en weersverwachtingen van meer dan 4000 vliegvelden (METAR en TAF).

De beschikbare stations zijn de gele en rode punten op de kaart.

Ga met uw muis naar het station om de naam te zien.

Klik dan om waarnemingen en weersverwachtingen te zien.

kaart wijzigen: klik op de groene knoppen met een zwart kruis om in te zoomen, op de groene knop met een streepje om uit te zoomen of op de groene pijlen voor aangrenzende kaarten.


METAR-TAF: